createdAt,value
2018-12-31T00:01:27.264Z,6.09
2018-12-31T00:06:28.140Z,6.11
2018-12-31T00:11:29.084Z,6.11
2018-12-31T00:16:30.302Z,6.12
2018-12-31T00:21:31.238Z,6.13
2018-12-31T00:26:32.288Z,6.05
2018-12-31T00:31:33.311Z,6.06
2018-12-31T00:36:36.427Z,6.07
2018-12-31T00:41:37.592Z,6.20
2018-12-31T00:46:39.281Z,6.17
2018-12-31T00:51:40.192Z,6.19
2018-12-31T00:56:43.863Z,6.21
2018-12-31T01:01:45.062Z,6.22
2018-12-31T01:06:47.006Z,6.22
2018-12-31T01:11:48.237Z,6.21
2018-12-31T01:16:49.268Z,6.22
2018-12-31T01:21:51.817Z,6.21
2018-12-31T01:26:53.020Z,6.18
2018-12-31T01:31:54.131Z,6.18
2018-12-31T01:36:55.123Z,6.24
2018-12-31T01:41:56.052Z,6.23
2018-12-31T01:46:56.993Z,6.27
2018-12-31T01:51:57.748Z,6.33
2018-12-31T01:56:58.681Z,6.31
2018-12-31T02:01:59.378Z,6.30
2018-12-31T02:07:00.131Z,6.30
2018-12-31T02:12:01.084Z,6.44
2018-12-31T02:17:01.809Z,6.45
2018-12-31T02:22:02.623Z,6.41
2018-12-31T02:27:03.414Z,6.37
2018-12-31T02:32:04.094Z,6.33
2018-12-31T02:37:05.041Z,6.42
2018-12-31T02:42:05.777Z,6.32
2018-12-31T02:47:06.507Z,6.36
2018-12-31T02:52:07.222Z,6.35
2018-12-31T02:57:07.896Z,6.44
2018-12-31T03:02:08.966Z,6.49
2018-12-31T03:07:09.696Z,6.51
2018-12-31T03:12:12.399Z,6.55
2018-12-31T03:17:13.582Z,6.61
2018-12-31T03:22:17.711Z,6.61
2018-12-31T03:27:18.597Z,6.66
2018-12-31T03:32:21.650Z,6.67
2018-12-31T03:37:22.374Z,6.64
2018-12-31T03:42:23.335Z,6.71
2018-12-31T03:47:24.549Z,6.66
2018-12-31T03:52:25.917Z,6.76
2018-12-31T03:57:29.971Z,6.81
2018-12-31T04:02:31.144Z,6.90
2018-12-31T04:07:34.319Z,6.89
2018-12-31T04:12:35.501Z,6.91
2018-12-31T04:17:36.421Z,6.99
2018-12-31T04:22:37.217Z,6.98
2018-12-31T04:27:39.443Z,6.98
2018-12-31T04:32:40.567Z,7.00
2018-12-31T04:37:53.662Z,6.92
2018-12-31T04:42:54.635Z,6.98
2018-12-31T04:47:57.835Z,6.95
2018-12-31T04:52:59.919Z,6.92
2018-12-31T04:58:01.220Z,6.93
2018-12-31T05:03:02.134Z,6.80
2018-12-31T05:08:04.283Z,6.84
2018-12-31T05:13:05.559Z,6.90
2018-12-31T05:18:06.416Z,6.96
2018-12-31T05:23:07.387Z,6.97
2018-12-31T05:28:08.466Z,7.01
2018-12-31T05:33:09.687Z,7.09
2018-12-31T05:38:10.566Z,7.20
2018-12-31T05:43:11.308Z,7.38
2018-12-31T05:48:12.159Z,7.35
2018-12-31T05:53:13.776Z,7.59
2018-12-31T05:58:14.476Z,7.48
2018-12-31T06:03:15.428Z,7.29
2018-12-31T06:08:16.185Z,7.26
2018-12-31T06:13:16.937Z,7.33
2018-12-31T06:18:17.894Z,7.43
2018-12-31T06:23:18.644Z,7.51
2018-12-31T06:28:19.589Z,7.46
2018-12-31T06:33:20.297Z,7.57
2018-12-31T06:38:21.568Z,7.83
2018-12-31T06:43:23.509Z,7.61
2018-12-31T06:48:24.522Z,7.82
2018-12-31T06:53:25.294Z,7.68
2018-12-31T06:58:26.044Z,7.77
2018-12-31T07:03:28.052Z,7.65
2018-12-31T07:08:28.978Z,7.48
2018-12-31T07:13:29.986Z,7.60
2018-12-31T07:18:30.872Z,7.43
2018-12-31T07:23:31.665Z,7.33
2018-12-31T07:28:32.635Z,7.27
2018-12-31T07:33:33.445Z,7.20
2018-12-31T07:38:34.456Z,7.17
2018-12-31T07:43:35.418Z,7.23
2018-12-31T07:48:36.482Z,7.33
2018-12-31T07:53:37.561Z,7.37
2018-12-31T07:58:38.896Z,7.51
2018-12-31T08:03:39.804Z,7.54
2018-12-31T08:08:40.580Z,7.54
2018-12-31T08:13:41.648Z,7.54
2018-12-31T08:18:43.701Z,7.37
2018-12-31T08:23:45.908Z,7.39
2018-12-31T08:28:46.840Z,7.38
2018-12-31T08:33:47.728Z,7.39
2018-12-31T08:38:49.810Z,7.38
2018-12-31T08:43:50.735Z,7.43
2018-12-31T08:48:51.543Z,7.49
2018-12-31T08:53:52.613Z,7.60
2018-12-31T08:58:53.323Z,7.55
2018-12-31T09:03:54.039Z,7.61
2018-12-31T09:08:54.919Z,7.65
2018-12-31T09:13:56.728Z,7.68
2018-12-31T09:18:57.682Z,7.66
2018-12-31T09:23:58.916Z,7.68
2018-12-31T09:28:59.733Z,7.79
2018-12-31T09:34:00.639Z,7.97
2018-12-31T09:39:01.609Z,8.05
2018-12-31T09:44:02.519Z,8.11
2018-12-31T09:49:03.515Z,8.07
2018-12-31T09:54:06.548Z,8.14
2018-12-31T09:59:07.517Z,8.30
2018-12-31T10:04:08.631Z,8.47
2018-12-31T10:09:09.445Z,8.51
2018-12-31T10:14:10.582Z,8.54
2018-12-31T10:19:11.555Z,8.61
2018-12-31T10:24:12.198Z,8.62
2018-12-31T10:29:12.883Z,8.71
2018-12-31T10:34:13.637Z,8.59
2018-12-31T10:39:14.591Z,8.54
2018-12-31T10:44:15.268Z,8.63
2018-12-31T10:49:15.987Z,8.57
2018-12-31T10:54:17.035Z,8.62
2018-12-31T10:59:17.831Z,8.66
2018-12-31T11:04:19.082Z,8.80
2018-12-31T11:09:20.128Z,8.82
2018-12-31T11:14:25.643Z,8.88
2018-12-31T11:19:27.563Z,8.86
2018-12-31T11:24:28.636Z,8.81
2018-12-31T11:29:30.873Z,8.96
2018-12-31T11:34:32.199Z,8.83
2018-12-31T11:39:35.422Z,8.89
2018-12-31T11:44:36.282Z,8.81
2018-12-31T11:49:36.971Z,8.86
2018-12-31T11:54:39.337Z,8.86
2018-12-31T11:59:40.329Z,8.88
2018-12-31T12:04:41.355Z,9.04
2018-12-31T12:09:42.401Z,9.02
2018-12-31T12:14:43.609Z,9.01
2018-12-31T12:19:44.563Z,9.07
2018-12-31T12:24:45.607Z,9.09
2018-12-31T12:29:46.771Z,9.24
2018-12-31T12:34:47.946Z,8.85
2018-12-31T12:39:48.796Z,8.84
2018-12-31T12:44:49.560Z,8.91
2018-12-31T12:49:50.834Z,9.05
2018-12-31T12:54:51.930Z,8.95
2018-12-31T12:59:52.698Z,8.84
2018-12-31T13:04:53.681Z,8.49
2018-12-31T13:09:54.760Z,8.43
2018-12-31T13:14:55.553Z,8.35
2018-12-31T13:19:56.302Z,8.45
2018-12-31T13:24:57.396Z,8.26
2018-12-31T13:29:58.215Z,8.20
2018-12-31T13:34:59.644Z,8.27
2018-12-31T13:40:00.720Z,8.34
2018-12-31T13:45:01.458Z,8.26
2018-12-31T13:50:04.201Z,8.21
2018-12-31T13:55:04.904Z,8.25
2018-12-31T14:00:07.276Z,8.25
2018-12-31T14:05:08.134Z,8.24
2018-12-31T14:10:08.790Z,8.24
2018-12-31T14:15:09.890Z,8.38
2018-12-31T14:20:10.899Z,8.37
2018-12-31T14:25:11.579Z,8.40
2018-12-31T14:30:12.904Z,8.47
2018-12-31T14:35:13.862Z,8.48
2018-12-31T14:40:14.858Z,8.48
2018-12-31T14:45:15.648Z,8.44
2018-12-31T14:50:16.406Z,8.42
2018-12-31T14:55:17.580Z,8.38
2018-12-31T15:00:18.621Z,8.37
2018-12-31T15:05:19.896Z,8.41
2018-12-31T15:10:21.057Z,8.23
2018-12-31T15:15:22.186Z,8.18
2018-12-31T15:20:23.009Z,8.17
2018-12-31T15:25:23.970Z,8.30
2018-12-31T15:30:24.961Z,8.31
2018-12-31T15:35:25.647Z,8.30
2018-12-31T15:40:29.436Z,8.26
2018-12-31T15:45:30.245Z,8.23
2018-12-31T15:50:31.486Z,8.19
2018-12-31T15:55:32.162Z,8.06
2018-12-31T16:00:33.648Z,8.06
2018-12-31T16:16:53.574Z,7.95
2018-12-31T16:21:54.374Z,7.94
2018-12-31T16:26:55.426Z,7.97
2018-12-31T16:31:56.077Z,7.97
2018-12-31T16:36:56.768Z,7.88
2018-12-31T16:41:58.446Z,7.81
2018-12-31T16:46:59.252Z,7.95
2018-12-31T16:52:02.740Z,7.88
2018-12-31T16:57:05.173Z,7.87
2018-12-31T17:02:06.128Z,7.99
2018-12-31T17:07:06.793Z,8.13
2018-12-31T17:12:07.652Z,8.14
2018-12-31T17:17:08.384Z,8.04
2018-12-31T17:22:09.103Z,8.01
2018-12-31T17:27:09.884Z,7.90
2018-12-31T17:32:10.685Z,7.93
2018-12-31T17:42:37.028Z,8.14
2018-12-31T17:47:43.953Z,8.39
2018-12-31T17:52:45.863Z,8.34
2018-12-31T17:57:46.912Z,8.32
2018-12-31T18:02:47.883Z,8.26
2018-12-31T18:07:48.885Z,8.33
2018-12-31T18:12:49.744Z,8.09
2018-12-31T18:17:50.847Z,7.90
2018-12-31T18:22:52.198Z,7.84
2018-12-31T18:27:53.326Z,7.77
2018-12-31T18:32:54.389Z,7.75
2018-12-31T18:37:57.133Z,7.60
2018-12-31T18:42:57.943Z,7.74
2018-12-31T18:47:58.980Z,7.66
2018-12-31T18:53:00.020Z,7.62
2018-12-31T18:58:00.990Z,7.63
2018-12-31T19:03:02.025Z,7.70
2018-12-31T19:08:02.821Z,7.78
2018-12-31T19:13:03.573Z,7.80
2018-12-31T19:18:04.643Z,7.84
2018-12-31T19:23:05.315Z,7.97
2018-12-31T19:28:06.034Z,7.85
2018-12-31T19:33:06.700Z,7.82
2018-12-31T19:38:07.757Z,7.67
2018-12-31T19:43:09.719Z,7.73
2018-12-31T19:48:10.627Z,7.73
2018-12-31T19:53:13.515Z,7.66
2018-12-31T19:58:14.795Z,7.70
2018-12-31T20:03:15.835Z,7.59
2018-12-31T20:08:18.246Z,7.58
2018-12-31T20:13:19.094Z,7.58
2018-12-31T20:18:19.865Z,7.75
2018-12-31T20:23:20.766Z,7.74
2018-12-31T20:28:21.862Z,7.64
2018-12-31T20:33:22.775Z,7.71
2018-12-31T20:38:23.550Z,7.72
2018-12-31T20:43:24.254Z,7.75
2018-12-31T20:48:25.168Z,7.78
2018-12-31T20:53:26.081Z,7.83
2018-12-31T20:58:27.036Z,7.87
2018-12-31T21:03:28.050Z,7.75
2018-12-31T21:08:29.403Z,7.79
2018-12-31T21:13:30.366Z,7.81
2018-12-31T21:18:32.334Z,8.02
2018-12-31T21:23:33.249Z,7.79
2018-12-31T21:28:34.227Z,7.69
2018-12-31T21:33:34.889Z,7.65
2018-12-31T21:38:35.844Z,7.55
2018-12-31T21:43:37.366Z,7.63
2018-12-31T21:48:38.075Z,7.59
2018-12-31T21:53:39.043Z,7.70
2018-12-31T21:58:40.074Z,7.70
2018-12-31T22:03:47.323Z,7.69
2018-12-31T22:08:51.171Z,7.64
2018-12-31T22:13:52.259Z,7.79
2018-12-31T22:18:53.211Z,7.76
2018-12-31T22:23:55.679Z,7.60
2018-12-31T22:28:57.069Z,7.56
2018-12-31T22:33:57.955Z,7.49
2018-12-31T22:38:58.868Z,7.46
2018-12-31T22:44:02.598Z,7.48
2018-12-31T22:49:03.627Z,7.46
2018-12-31T22:54:04.481Z,7.57
2018-12-31T22:59:06.197Z,7.43
2018-12-31T23:04:06.833Z,7.27
2018-12-31T23:09:09.283Z,7.36
2018-12-31T23:14:10.636Z,7.55
2018-12-31T23:19:11.675Z,7.54
2018-12-31T23:24:39.658Z,7.43
2018-12-31T23:34:48.372Z,7.57
2018-12-31T23:39:49.082Z,7.64
2018-12-31T23:45:06.915Z,7.63
2018-12-31T23:50:08.513Z,7.54
2018-12-31T23:55:09.274Z,7.46
